createdAt,value
2022-11-17T00:01:28.831Z,7.18
2022-11-17T00:03:55.286Z,8.77
2022-11-17T00:06:21.715Z,8.75
2022-11-17T00:08:48.349Z,9.32
2022-11-17T00:11:14.950Z,8.10
2022-11-17T00:13:41.358Z,9.23
2022-11-17T00:16:12.331Z,9.40
2022-11-17T00:18:38.751Z,6.47
2022-11-17T00:21:05.511Z,9.18
2022-11-17T00:23:32.090Z,9.52
2022-11-17T00:25:58.630Z,9.07
2022-11-17T00:28:24.998Z,10.70
2022-11-17T00:30:52.782Z,9.25
2022-11-17T00:33:20.662Z,9.10
2022-11-17T00:35:51.225Z,9.40
2022-11-17T00:38:17.671Z,8.95
2022-11-17T00:40:44.062Z,8.90
2022-11-17T00:43:10.544Z,9.82
2022-11-17T00:45:36.967Z,8.80
2022-11-17T00:48:03.685Z,9.88
2022-11-17T00:50:31.417Z,9.88
2022-11-17T00:52:57.828Z,9.93
2022-11-17T00:55:24.424Z,10.07
2022-11-17T00:57:50.868Z,9.63
2022-11-17T01:00:17.673Z,10.20
2022-11-17T01:02:44.062Z,9.35
2022-11-17T01:05:10.476Z,9.88
2022-11-17T01:07:38.264Z,11.75
2022-11-17T01:10:05.505Z,9.38
2022-11-17T01:12:31.883Z,9.73
2022-11-17T01:14:58.315Z,9.15
2022-11-17T01:17:25.007Z,10.00
2022-11-17T01:19:51.414Z,12.85
2022-11-17T01:22:17.889Z,10.60
2022-11-17T01:24:45.658Z,12.27
2022-11-17T01:27:12.093Z,12.43
2022-11-17T01:29:38.600Z,9.20
2022-11-17T01:32:05.164Z,10.43
2022-11-17T01:34:31.560Z,10.98
2022-11-17T01:36:57.995Z,9.18
2022-11-17T01:39:25.970Z,10.15
2022-11-17T01:41:54.615Z,11.18
2022-11-17T01:44:51.257Z,11.73
2022-11-17T01:47:23.408Z,9.10
2022-11-17T01:49:54.395Z,10.93
2022-11-17T01:52:21.270Z,11.57
2022-11-17T01:54:48.609Z,10.63
2022-11-17T01:57:21.183Z,11.82
2022-11-17T01:59:51.684Z,11.02
2022-11-17T02:02:19.491Z,10.73
2022-11-17T02:04:49.586Z,9.75
2022-11-17T02:07:20.872Z,9.07
2022-11-17T02:09:47.514Z,9.25
2022-11-17T02:12:16.504Z,6.50
2022-11-17T02:14:42.924Z,8.45
2022-11-17T02:17:14.278Z,8.15
2022-11-17T02:19:42.912Z,8.48
2022-11-17T02:22:26.287Z,8.40
2022-11-17T02:25:26.955Z,10.50
2022-11-17T02:28:10.777Z,9.00
2022-11-17T02:30:46.591Z,7.28
2022-11-17T02:33:23.992Z,9.02
2022-11-17T02:35:58.282Z,9.23
2022-11-17T02:38:32.549Z,11.07
2022-11-17T02:41:13.706Z,8.52
2022-11-17T02:43:50.851Z,9.70
2022-11-17T02:46:21.316Z,9.23
2022-11-17T02:48:53.870Z,8.05
2022-11-17T02:51:22.597Z,8.60
2022-11-17T02:53:51.373Z,7.72
2022-11-17T02:56:17.781Z,11.00
2022-11-17T02:58:49.424Z,8.50
2022-11-17T03:01:32.437Z,11.00
2022-11-17T03:04:17.495Z,9.00
2022-11-17T03:06:53.310Z,8.77
2022-11-17T03:09:30.180Z,9.23
2022-11-17T03:12:03.639Z,9.52
2022-11-17T03:14:40.407Z,8.73
2022-11-17T03:17:14.270Z,10.52
2022-11-17T03:19:47.236Z,10.05
2022-11-17T03:22:20.032Z,11.77
2022-11-17T03:24:50.287Z,10.07
2022-11-17T03:27:21.688Z,11.90
2022-11-17T03:29:55.563Z,10.40
2022-11-17T03:34:55.358Z,11.05
2022-11-17T03:37:23.411Z,10.45
2022-11-17T03:39:53.667Z,10.73
2022-11-17T03:42:24.303Z,10.15
2022-11-17T03:44:55.795Z,12.52
2022-11-17T03:47:26.763Z,11.18
2022-11-17T03:49:57.580Z,11.27
2022-11-17T03:52:24.495Z,14.40
2022-11-17T03:54:51.763Z,13.05
2022-11-17T03:57:25.240Z,11.30
2022-11-17T03:59:57.657Z,13.15
2022-11-17T04:02:25.939Z,13.98
2022-11-17T04:04:52.368Z,11.02
2022-11-17T04:07:18.893Z,12.88
2022-11-17T04:09:45.361Z,13.85
2022-11-17T04:12:11.739Z,12.82
2022-11-17T04:14:38.140Z,10.65
2022-11-17T04:17:06.143Z,11.65
2022-11-17T04:19:32.672Z,11.02
2022-11-17T04:21:59.323Z,10.73
2022-11-17T04:24:25.742Z,13.15
2022-11-17T04:26:52.243Z,10.88
2022-11-17T04:29:18.623Z,14.55
2022-11-17T04:31:45.354Z,11.77
2022-11-17T04:34:13.079Z,11.32
2022-11-17T04:36:40.899Z,13.68
2022-11-17T04:39:07.386Z,11.68
2022-11-17T04:41:34.907Z,14.30
2022-11-17T04:44:02.275Z,15.40
2022-11-17T04:46:29.976Z,13.90
2022-11-17T04:48:57.106Z,14.13
2022-11-17T04:51:26.273Z,12.15
2022-11-17T04:53:53.349Z,13.68
2022-11-17T04:56:21.199Z,13.35
2022-11-17T04:58:48.043Z,13.90
2022-11-17T05:01:14.851Z,12.68
2022-11-17T05:03:42.674Z,16.25
2022-11-17T05:06:09.721Z,13.18
2022-11-17T05:08:37.795Z,23.25
2022-11-17T05:11:05.867Z,14.48
2022-11-17T05:13:32.436Z,14.23
2022-11-17T05:15:58.957Z,13.90
2022-11-17T05:18:25.355Z,16.23
2022-11-17T05:20:51.735Z,13.88
2022-11-17T05:23:18.143Z,12.98
2022-11-17T05:25:45.885Z,11.35
2022-11-17T05:28:12.280Z,12.65
2022-11-17T05:30:38.718Z,12.93
2022-11-17T05:33:05.169Z,12.93
2022-11-17T05:35:31.600Z,11.98
2022-11-17T05:37:58.349Z,15.32
2022-11-17T05:40:24.731Z,12.98
2022-11-17T05:42:56.953Z,12.30
2022-11-17T05:45:24.113Z,11.48
2022-11-17T05:47:50.509Z,12.60
2022-11-17T05:50:16.978Z,19.80
2022-11-17T05:52:43.392Z,15.13
2022-11-17T05:55:09.796Z,16.45
2022-11-17T05:57:36.335Z,12.02
2022-11-17T06:00:05.709Z,14.70
2022-11-17T06:02:36.569Z,13.88
2022-11-17T06:05:03.351Z,16.02
2022-11-17T06:07:29.861Z,15.13
2022-11-17T06:09:56.594Z,16.23
2022-11-17T06:12:22.982Z,16.58
2022-11-17T06:14:49.431Z,14.07
2022-11-17T06:17:22.813Z,13.27
2022-11-17T06:22:17.746Z,12.68
2022-11-17T06:24:45.538Z,16.13
2022-11-17T06:27:14.918Z,13.82
2022-11-17T06:29:44.596Z,16.42
2022-11-17T06:32:12.446Z,20.08
2022-11-17T06:34:41.034Z,18.20
2022-11-17T06:37:07.463Z,17.85
2022-11-17T06:39:33.908Z,17.05
2022-11-17T06:42:00.428Z,18.23
2022-11-17T06:44:26.853Z,18.35
2022-11-17T06:46:53.234Z,19.00
2022-11-17T06:49:19.853Z,19.08
2022-11-17T06:51:47.605Z,19.25
2022-11-17T06:54:14.263Z,18.52
2022-11-17T06:56:40.820Z,20.05
2022-11-17T06:59:07.239Z,25.65
2022-11-17T07:01:33.742Z,22.38
2022-11-17T07:04:00.205Z,19.90
2022-11-17T07:06:26.699Z,19.15
2022-11-17T07:08:54.537Z,22.88
2022-11-17T07:11:21.129Z,23.67
2022-11-17T07:13:47.611Z,21.33
2022-11-17T07:16:21.832Z,24.13
2022-11-17T07:18:50.217Z,22.33
2022-11-17T07:21:16.609Z,19.33
2022-11-17T07:23:43.377Z,22.38
2022-11-17T07:26:11.584Z,18.20
2022-11-17T07:28:38.335Z,19.75
2022-11-17T07:31:07.301Z,19.05
2022-11-17T07:33:34.288Z,22.45
2022-11-17T07:36:04.720Z,21.55
2022-11-17T07:38:32.613Z,17.77
2022-11-17T07:40:59.779Z,22.45
2022-11-17T07:43:27.887Z,22.05
2022-11-17T07:45:54.349Z,18.58
2022-11-17T07:48:21.156Z,18.77
2022-11-17T07:50:48.090Z,20.77
2022-11-17T07:53:14.583Z,21.52
2022-11-17T07:55:41.230Z,21.42
2022-11-17T07:58:07.647Z,20.20
2022-11-17T08:00:35.547Z,18.33
2022-11-17T08:03:02.569Z,18.23
2022-11-17T08:05:29.170Z,20.75
2022-11-17T08:07:56.526Z,16.95
2022-11-17T08:10:23.200Z,23.02
2022-11-17T08:12:50.971Z,20.92
2022-11-17T08:15:17.454Z,15.52
2022-11-17T08:17:45.231Z,17.73
2022-11-17T08:20:12.201Z,22.42
2022-11-17T08:22:38.675Z,19.95
2022-11-17T08:25:05.991Z,17.48
2022-11-17T08:27:32.390Z,19.33
2022-11-17T08:29:58.838Z,17.48
2022-11-17T08:32:25.255Z,18.02
2022-11-17T08:34:53.229Z,18.52
2022-11-17T08:37:19.605Z,16.80
2022-11-17T08:39:46.026Z,15.60
2022-11-17T08:42:12.423Z,14.48
2022-11-17T08:44:38.974Z,15.05
2022-11-17T08:47:05.822Z,15.27
2022-11-17T08:49:32.221Z,12.32
2022-11-17T08:51:59.965Z,14.10
2022-11-17T08:54:26.563Z,15.27
2022-11-17T08:56:57.010Z,14.55
2022-11-17T08:59:23.677Z,12.15
2022-11-17T09:01:50.085Z,14.35
2022-11-17T09:04:17.139Z,13.18
2022-11-17T09:06:43.538Z,14.30
2022-11-17T09:09:11.308Z,10.57
2022-11-17T09:11:37.782Z,12.40
2022-11-17T09:14:06.287Z,12.20
2022-11-17T09:16:32.795Z,11.30
2022-11-17T09:18:59.173Z,11.15
2022-11-17T09:21:26.339Z,9.02
2022-11-17T09:23:53.743Z,12.30
2022-11-17T09:26:21.704Z,8.98
2022-11-17T09:28:48.242Z,10.95
2022-11-17T09:31:16.966Z,11.05
2022-11-17T09:33:43.848Z,11.18
2022-11-17T09:36:11.714Z,10.20
2022-11-17T09:38:39.504Z,10.95
2022-11-17T09:41:23.088Z,9.00
2022-11-17T09:43:56.728Z,8.37
2022-11-17T09:46:30.882Z,10.55
2022-11-17T09:49:04.863Z,9.57
2022-11-17T09:51:34.097Z,10.05
2022-11-17T09:54:07.614Z,10.10
2022-11-17T09:56:35.372Z,10.20
2022-11-17T09:59:04.653Z,9.68
2022-11-17T10:01:31.412Z,11.05
2022-11-17T10:03:58.162Z,11.35
2022-11-17T10:06:25.928Z,10.43
2022-11-17T10:08:59.758Z,11.35
2022-11-17T10:13:55.688Z,12.77
2022-11-17T10:16:22.232Z,13.05
2022-11-17T10:18:48.652Z,11.02
2022-11-17T10:21:15.073Z,12.07
2022-11-17T10:23:50.343Z,14.00
2022-11-17T10:26:16.803Z,14.65
2022-11-17T10:28:43.925Z,15.10
2022-11-17T10:31:14.801Z,15.60
2022-11-17T10:33:43.443Z,12.25
2022-11-17T10:36:18.031Z,11.02
2022-11-17T10:38:45.934Z,8.80
2022-11-17T10:41:15.592Z,8.23
2022-11-17T10:43:53.936Z,10.65
2022-11-17T10:46:21.702Z,9.23
2022-11-17T10:48:56.357Z,9.20
2022-11-17T10:51:24.395Z,8.20
2022-11-17T10:54:02.178Z,11.70
2022-11-17T10:56:30.773Z,7.68
2022-11-17T10:59:02.001Z,7.07
2022-11-17T11:01:32.152Z,7.43
2022-11-17T11:03:58.669Z,12.32
2022-11-17T11:06:27.327Z,8.48
2022-11-17T11:08:57.023Z,9.70
2022-11-17T11:11:36.541Z,8.10
2022-11-17T11:14:11.986Z,8.18
2022-11-17T11:16:46.596Z,9.30
2022-11-17T11:22:02.148Z,7.60
2022-11-17T11:24:38.505Z,7.80
2022-11-17T11:27:19.714Z,6.97
2022-11-17T11:29:56.248Z,7.32
2022-11-17T11:32:33.651Z,8.05
2022-11-17T11:35:32.035Z,10.75
2022-11-17T11:38:08.195Z,8.95
2022-11-17T11:40:38.401Z,6.72
2022-11-17T11:43:18.042Z,5.28
2022-11-17T11:45:54.274Z,6.35
2022-11-17T11:48:26.630Z,7.18
2022-11-17T11:50:57.417Z,5.55
2022-11-17T11:53:41.837Z,7.25
2022-11-17T11:58:47.709Z,6.07
2022-11-17T12:01:15.130Z,6.00
2022-11-17T12:03:49.853Z,7.93
2022-11-17T12:06:26.759Z,5.93
2022-11-17T12:09:01.803Z,7.18
2022-11-17T12:11:28.870Z,7.15
2022-11-17T12:13:57.079Z,6.88
2022-11-17T12:16:28.375Z,8.77
2022-11-17T12:18:56.172Z,7.35
2022-11-17T12:21:24.357Z,6.75
2022-11-17T12:24:09.839Z,7.00
2022-11-17T12:26:36.523Z,10.10
2022-11-17T12:29:28.654Z,7.15
2022-11-17T12:31:56.535Z,9.52
2022-11-17T12:34:30.383Z,5.95
2022-11-17T12:42:21.262Z,6.35
2022-11-17T12:44:55.970Z,9.10
2022-11-17T12:47:23.929Z,6.72
2022-11-17T12:50:31.924Z,5.95
2022-11-17T12:53:16.543Z,6.13
2022-11-17T12:55:57.505Z,6.03
2022-11-17T12:58:33.667Z,4.93
2022-11-17T13:01:09.824Z,6.60
2022-11-17T13:03:45.296Z,5.85
2022-11-17T13:09:03.628Z,5.45
2022-11-17T13:11:30.243Z,6.97
2022-11-17T13:14:10.798Z,6.93
2022-11-17T13:16:44.502Z,6.88
2022-11-17T13:19:29.913Z,6.03
2022-11-17T13:22:00.040Z,6.07
2022-11-17T13:24:31.116Z,5.68
2022-11-17T13:26:58.777Z,4.75
2022-11-17T13:29:25.204Z,5.70
2022-11-17T13:32:05.841Z,7.57
2022-11-17T13:34:32.438Z,8.80
2022-11-17T13:37:00.864Z,7.80
2022-11-17T13:39:28.204Z,24.35
2022-11-17T13:41:56.187Z,11.15
2022-11-17T13:44:25.319Z,10.18
2022-11-17T13:46:51.798Z,7.07
2022-11-17T13:49:30.650Z,5.63
2022-11-17T13:51:57.204Z,5.10
2022-11-17T13:54:25.242Z,6.05
2022-11-17T13:56:54.841Z,6.53
2022-11-17T13:59:24.273Z,4.95
2022-11-17T14:02:23.009Z,5.32
2022-11-17T14:05:04.517Z,6.15
2022-11-17T14:07:33.975Z,4.75
2022-11-17T14:10:13.125Z,5.78
2022-11-17T14:12:39.593Z,5.07
2022-11-17T14:15:13.790Z,6.57
2022-11-17T14:17:40.570Z,5.35
2022-11-17T14:20:29.595Z,6.82
2022-11-17T14:23:00.742Z,6.10
2022-11-17T14:25:28.567Z,6.22
2022-11-17T14:27:55.228Z,8.93
2022-11-17T14:30:22.247Z,7.80
2022-11-17T14:32:48.711Z,9.13
2022-11-17T14:35:15.558Z,8.45
2022-11-17T14:37:42.206Z,9.40
2022-11-17T14:40:13.115Z,11.07
2022-11-17T14:42:41.061Z,16.60
2022-11-17T14:45:09.227Z,11.68
2022-11-17T14:47:35.665Z,12.20
2022-11-17T14:50:02.100Z,12.15
2022-11-17T14:52:28.572Z,10.70
2022-11-17T14:54:54.950Z,13.48
2022-11-17T14:57:21.326Z,15.25
2022-11-17T14:59:49.663Z,12.05
2022-11-17T15:02:16.143Z,11.88
2022-11-17T15:04:50.498Z,16.25
2022-11-17T15:07:18.247Z,14.18
2022-11-17T15:09:44.677Z,9.82
2022-11-17T15:12:11.074Z,14.57
2022-11-17T15:14:37.677Z,11.90
2022-11-17T15:17:09.860Z,15.48
2022-11-17T15:19:39.367Z,16.42
2022-11-17T15:22:06.021Z,12.90
2022-11-17T15:24:32.455Z,15.93
2022-11-17T15:26:58.918Z,14.48
2022-11-17T15:29:25.335Z,9.15
2022-11-17T15:31:51.723Z,18.02
2022-11-17T15:34:20.598Z,17.30
2022-11-17T15:36:47.279Z,12.38
2022-11-17T15:39:14.114Z,17.33
2022-11-17T15:41:40.948Z,11.40
2022-11-17T15:44:07.539Z,13.75
2022-11-17T15:46:34.018Z,15.80
2022-11-17T15:49:00.585Z,16.67
2022-11-17T15:51:28.584Z,12.07
2022-11-17T15:53:57.742Z,16.38
2022-11-17T15:56:25.892Z,10.65
2022-11-17T15:58:55.377Z,16.52
2022-11-17T16:01:26.895Z,15.77
2022-11-17T16:03:57.744Z,13.93
2022-11-17T16:06:24.234Z,11.55
2022-11-17T16:08:52.163Z,12.88
2022-11-17T16:11:18.563Z,8.85
2022-11-17T16:13:44.976Z,7.47
2022-11-17T16:16:13.329Z,11.77
2022-11-17T16:18:40.122Z,8.45
2022-11-17T16:21:08.062Z,10.82
2022-11-17T16:23:38.772Z,9.45
2022-11-17T16:26:07.322Z,13.57
2022-11-17T16:28:33.722Z,12.90
2022-11-17T16:31:00.265Z,14.95
2022-11-17T16:33:26.657Z,18.80
2022-11-17T16:35:53.069Z,26.90
2022-11-17T16:38:19.494Z,30.48
2022-11-17T16:40:45.879Z,30.80
2022-11-17T16:43:13.624Z,27.20
2022-11-17T16:45:42.634Z,26.55
2022-11-17T16:48:09.087Z,31.42
2022-11-17T16:50:36.326Z,25.00
2022-11-17T16:53:02.831Z,24.38
2022-11-17T16:55:29.215Z,21.23
2022-11-17T16:57:55.670Z,20.85
2022-11-17T17:00:24.243Z,29.80
2022-11-17T17:02:50.880Z,29.00
2022-11-17T17:05:17.323Z,31.58
2022-11-17T17:07:43.791Z,28.35
2022-11-17T17:10:10.378Z,31.63
2022-11-17T17:12:36.802Z,26.70
2022-11-17T17:15:04.032Z,29.30
2022-11-17T17:17:31.929Z,27.58
2022-11-17T17:19:58.329Z,21.77
2022-11-17T17:22:24.924Z,31.52
2022-11-17T17:24:51.362Z,21.60
2022-11-17T17:27:17.733Z,15.52
2022-11-17T17:29:44.217Z,12.02
2022-11-17T17:32:10.798Z,11.95
2022-11-17T17:34:38.541Z,13.50
2022-11-17T17:37:04.968Z,14.10
2022-11-17T17:39:31.370Z,10.02
2022-11-17T17:41:57.750Z,9.95
2022-11-17T17:44:24.197Z,10.82
2022-11-17T17:46:50.595Z,9.63
2022-11-17T17:49:17.524Z,13.13
2022-11-17T17:51:45.562Z,7.80
2022-11-17T17:54:15.121Z,8.75
2022-11-17T17:56:41.533Z,10.07
2022-11-17T17:59:08.101Z,10.85
2022-11-17T18:01:34.591Z,9.18
2022-11-17T18:04:01.489Z,10.80
2022-11-17T18:06:28.379Z,9.60
2022-11-17T18:08:57.073Z,13.00
2022-11-17T18:11:24.192Z,9.52
2022-11-17T18:13:51.859Z,13.75
2022-11-17T18:16:20.786Z,9.32
2022-11-17T18:18:47.927Z,8.02
2022-11-17T18:21:16.312Z,8.48
2022-11-17T18:23:43.350Z,9.18
2022-11-17T18:26:13.955Z,7.65
2022-11-17T18:28:40.668Z,7.30
2022-11-17T18:31:07.830Z,7.57
2022-11-17T18:33:34.346Z,7.75
2022-11-17T18:36:03.086Z,8.77
2022-11-17T18:38:30.483Z,11.82
2022-11-17T18:41:02.266Z,8.98
2022-11-17T18:43:30.992Z,8.45
2022-11-17T18:46:01.111Z,6.43
2022-11-17T18:48:27.489Z,7.20
2022-11-17T18:51:18.187Z,7.45
2022-11-17T18:53:40.901Z,6.60
2022-11-17T18:56:08.599Z,6.70
2022-11-17T18:58:37.529Z,5.80
2022-11-17T19:01:08.496Z,6.22
2022-11-17T19:03:35.170Z,6.70
2022-11-17T19:06:02.167Z,5.38
2022-11-17T19:08:29.175Z,5.90
2022-11-17T19:10:55.695Z,5.72
2022-11-17T19:13:22.345Z,5.60
2022-11-17T19:15:50.914Z,5.18
2022-11-17T19:18:18.154Z,6.53
2022-11-17T19:20:45.151Z,6.32
2022-11-17T19:23:12.091Z,8.27
2022-11-17T19:25:39.794Z,6.78
2022-11-17T19:28:08.093Z,7.05
2022-11-17T19:30:34.678Z,7.45
2022-11-17T19:33:02.484Z,6.88
2022-11-17T19:35:29.275Z,7.43
2022-11-17T19:37:56.207Z,9.35
2022-11-17T19:40:22.823Z,8.45
2022-11-17T19:42:49.236Z,8.50
2022-11-17T19:45:15.854Z,8.68
2022-11-17T19:47:42.431Z,7.88
2022-11-17T19:50:10.786Z,8.48
2022-11-17T19:52:37.411Z,7.70
2022-11-17T19:55:04.232Z,7.65
2022-11-17T19:57:30.792Z,8.30
2022-11-17T19:59:57.277Z,8.88
2022-11-17T20:02:23.702Z,8.23
2022-11-17T20:04:50.135Z,7.68
2022-11-17T20:07:17.971Z,9.38
2022-11-17T20:09:44.480Z,7.82
2022-11-17T20:12:11.079Z,6.88
2022-11-17T20:14:37.570Z,8.05
2022-11-17T20:17:04.082Z,9.60
2022-11-17T20:19:30.511Z,8.70
2022-11-17T20:21:56.993Z,8.88
2022-11-17T20:24:24.828Z,8.60
2022-11-17T20:26:51.198Z,7.85
2022-11-17T20:29:18.177Z,9.13
2022-11-17T20:31:44.914Z,8.00
2022-11-17T20:34:12.729Z,6.47
2022-11-17T20:36:39.423Z,7.20
2022-11-17T20:39:06.692Z,9.00
2022-11-17T20:41:34.595Z,6.93
2022-11-17T20:44:01.497Z,7.43
2022-11-17T20:46:27.921Z,7.22
2022-11-17T20:48:54.501Z,8.13
2022-11-17T20:51:22.166Z,6.50
2022-11-17T20:53:48.933Z,6.40
2022-11-17T20:56:16.580Z,7.40
2022-11-17T20:58:44.592Z,7.30
2022-11-17T21:01:12.845Z,6.90
2022-11-17T21:03:39.313Z,8.55
2022-11-17T21:06:06.365Z,9.27
2022-11-17T21:08:34.385Z,10.00
2022-11-17T21:11:02.701Z,10.18
2022-11-17T21:13:31.274Z,14.13
2022-11-17T21:16:05.037Z,8.75
2022-11-17T21:20:57.972Z,8.18
2022-11-17T21:23:24.385Z,12.73
2022-11-17T21:25:50.775Z,8.82
2022-11-17T21:28:17.196Z,12.43
2022-11-17T21:30:43.669Z,8.32
2022-11-17T21:33:11.440Z,8.80
2022-11-17T21:35:37.825Z,9.60
2022-11-17T21:38:04.220Z,9.82
2022-11-17T21:40:30.947Z,9.25
2022-11-17T21:42:58.764Z,9.55
2022-11-17T21:45:25.212Z,10.52
2022-11-17T21:47:56.508Z,9.80
2022-11-17T21:50:26.933Z,11.02
2022-11-17T21:52:53.358Z,11.32
2022-11-17T21:55:19.759Z,9.52
2022-11-17T21:57:49.812Z,10.68
2022-11-17T22:00:17.361Z,10.38
2022-11-17T22:02:43.731Z,9.10
2022-11-17T22:05:10.121Z,10.13
2022-11-17T22:07:37.912Z,9.43
2022-11-17T22:10:05.266Z,11.45
2022-11-17T22:12:31.653Z,9.55
2022-11-17T22:14:58.077Z,9.80
2022-11-17T22:17:24.495Z,9.15
2022-11-17T22:19:51.039Z,11.13
2022-11-17T22:22:17.467Z,11.07
2022-11-17T22:24:49.634Z,9.80
2022-11-17T22:27:16.433Z,10.73
2022-11-17T22:29:42.865Z,13.05
2022-11-17T22:32:09.299Z,11.38
2022-11-17T22:34:35.680Z,11.90
2022-11-17T22:37:02.193Z,9.75
2022-11-17T22:39:28.607Z,11.15
2022-11-17T22:44:23.329Z,13.48
2022-11-17T22:46:49.853Z,11.38
2022-11-17T22:49:16.405Z,12.90
2022-11-17T22:51:42.988Z,10.25
2022-11-17T22:54:09.827Z,12.15
2022-11-17T22:56:36.266Z,14.55
2022-11-17T22:59:04.069Z,9.32
2022-11-17T23:01:30.728Z,9.95
2022-11-17T23:03:57.508Z,11.93
2022-11-17T23:06:23.949Z,11.48
2022-11-17T23:08:50.651Z,14.57
2022-11-17T23:14:05.540Z,11.20
2022-11-17T23:16:32.076Z,11.15
2022-11-17T23:18:58.494Z,12.13
2022-11-17T23:21:25.177Z,12.43
2022-11-17T23:23:51.555Z,11.63
2022-11-17T23:26:18.223Z,12.23
2022-11-17T23:28:44.867Z,10.15
2022-11-17T23:33:42.559Z,16.13
2022-11-17T23:36:12.448Z,15.20
2022-11-17T23:38:38.839Z,14.15
2022-11-17T23:41:07.103Z,14.73
2022-11-17T23:43:33.596Z,13.40
2022-11-17T23:46:04.332Z,11.68
2022-11-17T23:48:32.157Z,14.93
2022-11-17T23:50:59.346Z,12.48
2022-11-17T23:53:25.722Z,12.93
2022-11-17T23:55:55.277Z,13.68
2022-11-17T23:58:21.886Z,13.18
